Tiempo atmosférico en la estación meteorológica de Palencia, Palencia (736 m.)



Fecha
DESCASC
Temp. máxima en grados centígrados (hora)
DESCASC
Temp. mínima en grados centígrados (hora)
DESCASC
Temp. media en grados centígrados
DESCASC
Racha de viento máxima en m/sg (hora)
DESCASC
Velocidad máxima media en intervalos de 10 minutos(hora)
DESCASC
Precipitaciones diarias en mm
DESCASC
Precipitaciones de 00:00 a 06:00 en mm
DESCASC
Precipitaciones de 06:00 a 12:00 en mm
DESCASC
Precipitaciones de 12:00 a 18:00 en mm
DESCASC
Precipitaciones de 18:00 a 24:00 en mm
DESCASC
13-06-2019 26.1 (18:10) 4.7 (06:10) 15.4 11.11 (16:30) 5.83 (16:30) 0 0 0 0 0
12-06-2019 21.7 (17:50) 2 (06:40) 11.9 8.33 (14:30) 3.89 (17:40) 0 0 0 0 0
11-06-2019 19.1 (18:30) 6.6 (06:20) 12.9 8.89 (20:50) 5.83 (20:10) 0 0 0 0 0
10-06-2019 20.5 (19:10) 7 (07:00) 13.8 6.39 (21:50) 3.61 (22:00) 0 0 0 0 0
09-06-2019 25.2 (18:00) 8.2 (00:00) 16.7 9.72 (22:10) 5.28 (14:50) 0 0 0 0 0
08-06-2019 24.7 (16:50) 3 (00:00) 13.9 8.06 (14:40) 3.61 (14:50) 0 0 0 0 0
07-06-2019 19.9 (18:30) 6.8 (00:00) 13.3 11.94 (08:40) 6.67 (09:00) 0.6 0.6 0 0 0
06-06-2019 24.1 (17:30) 4.2 (00:00) 14.2 16.39 (22:40) 8.89 (22:40) 2.2 0 0 0 2.2
05-06-2019 19.5 (16:30) 9.1 (00:00) 14.3 11.94 (15:50) 6.39 (15:20) 3.2 3.2 0 0 0
04-06-2019 24.5 (15:30) 11.8 (00:00) 18.2 12.78 (19:00) 8.33 (19:00) 0 0 0 0 0
03-06-2019 31.6 (16:30) 13.1 (00:00) 22.4 10.28 (18:20) 5.83 (18:40) 0 0 0 0 0
02-06-2019 32.3 (16:20) 10.7 (00:00) 21.5 11.67 (16:20) 6.67 (16:40) 0 0 0 0 0
01-06-2019 33.1 (17:30) 8.6 (00:00) 20.8 6.39 (16:30) 3.33 (16:30) 0 0 0 0 0
31-05-2019 30.9 (18:30) 7.7 (00:00) 19.3 6.39 (16:40) 3.33 (17:50) 0 0 0 0 0
30-05-2019 28.1 (17:30) 6.6 (00:00) 17.4 8.33 (18:00) 3.61 (16:50) 0 0 0 0 0
29-05-2019 22.1 (17:20) 3.7 (00:00) 12.9 8.89 (14:10) 4.44 (14:50) 0 0 0 0 0
28-05-2019 22.1 (17:30) 6.5 (00:00) 14.3 9.44 (20:10) 4.72 (18:20) 0 0 0 0 0
27-05-2019 25 (16:30) 6.1 (00:00) 15.5 8.61 (21:00) 4.44 (20:40) 0 0 0 0 0
26-05-2019 24 (17:50) 5.1 (00:00) 14.5 6.39 (21:10) 3.33 (15:20) 0 0 0 0 0
25-05-2019 19.4 (17:10) 4.6 (00:00) 12 9.72 (10:20) 4.44 (10:10) 0 0 0 0 0
24-05-2019 19.3 (16:20) 9.8 (00:00) 14.5 10.28 (20:20) 5 (17:50) 0 0 0 0 0
23-05-2019 26 (18:40) 8.7 (00:00) 17.3 9.17 (21:10) 3.33 (14:10) 0 0 0 0 0
22-05-2019 26.6 (17:20) 4.1 (00:00) 15.4 18.33 (15:50) 3.89 (17:10) 0 0 0 0 0
21-05-2019 22.9 (16:40) 6.8 (03:00) 14.8 6.39 (17:40) 2.78 (19:40) 0 0 0 0 0
20-05-2019 20.6 (16:00) 2.3 (07:00) 11.5 5.83 (16:20) 2.5 (11:40) 0 0 0 0 0
19-05-2019 18.6 (19:10) 1.1 (00:00) 9.9 7.22 (20:40) 3.33 (20:30) 0 0 0 0 0
18-05-2019 15.9 (16:10) 2.8 (00:00) 9.3 13.06 (16:30) 7.22 (17:30) 0 0 0 0 0
17-05-2019 15.6 (15:20) 7.2 (00:00) 11.4 14.17 (07:10) 7.22 (09:30) 0.2 0.2 0 0 0

Gráficas

Temp. máximas Temp. mínimas Temp. medias Precipitaciones Rachas de viento máximas Velocidades máximas media en intervalos de 10 minutos

Datos horarios

Fecha y hora oficial Temperatura (ºC) Velocidad del viento (km/h) Dirección del viento Racha (km/h) Dirección de racha Precipitación (mm) Presión (hPa) Tendencia (hPa) Humedad (%)
2019-06-15 23:00:00 13.1 4 Sudoeste 7 Sudoeste 0 -- -- 50
2019-06-15 22:00:00 16.5 5 Sudoeste 6 Sudoeste 0 -- -- 42
2019-06-15 21:00:00 21.3 2 Norte 14 Nordeste 0 -- -- 34
2019-06-15 20:00:00 23.5 5 Norte 19 Oeste 0 -- -- 29
2019-06-15 19:00:00 23.6 9 Norte 21 Norte 0 -- -- 29
2019-06-15 18:00:00 23.5 5 Norte 27 Oeste 0 -- -- 33
2019-06-15 17:00:00 23.5 7 Oeste 24 Oeste 0 -- -- 31
2019-06-15 16:00:00 22.6 10 Noroeste 23 Noroeste 0 -- -- 33
2019-06-15 15:00:00 21.4 7 Oeste 20 Noroeste 0 -- -- 38
2019-06-15 14:00:00 19.1 6 Norte 19 Oeste 0 -- -- 43
2019-06-15 13:00:00 18.3 5 Norte 18 Noroeste 0 -- -- 46
2019-06-15 12:00:00 17.7 7 Noroeste 17 Oeste 0 -- -- 48
2019-06-15 11:00:00 16.8 3 Oeste 18 Noroeste 0 -- -- 55
2019-06-15 10:00:00 13.6 9 Oeste 15 Oeste 0 -- -- 63
2019-06-15 09:00:00 10.8 7 Oeste 15 Oeste 0 -- -- 73
2019-06-15 08:00:00 9.6 3 Sudeste 9 Sudeste 0 -- -- 77
2019-06-15 07:00:00 8 4 Sur 10 Sur 0 -- -- 79
2019-06-15 06:00:00 9.1 4 Sudeste 29 Oeste 0 -- -- 79
2019-06-15 05:00:00 10.5 18 Oeste 32 Oeste 0 -- -- 70
2019-06-15 04:00:00 10.8 18 Oeste 35 Oeste 0 -- -- 69
2019-06-15 03:00:00 11.2 22 Oeste 34 Oeste 0 -- -- 66
2019-06-15 02:00:00 12 18 Oeste 38 Oeste 0 -- -- 62
2019-06-15 01:00:00 13.7 21 Oeste 35 Oeste 0 -- -- 56
2019-06-15 00:00:00 14.9 20 Oeste 39 Oeste 0 -- -- 50
2019-06-14 23:00:00 15.8 20 Oeste 32 Oeste 0 -- -- 43
2019-06-14 22:00:00 16.8 15 Oeste 32 Oeste 0 -- -- 40
2019-06-14 21:00:00 18.8 23 Oeste 38 Oeste 0 -- -- 37
2019-06-14 20:00:00 21.5 19 Oeste 37 Oeste 0 -- -- 32
2019-06-14 19:00:00 23.5 15 Oeste 44 Oeste 0 -- -- 29
2019-06-14 18:00:00 24.2 18 Oeste 39 Sudoeste 0 -- -- 28
2019-06-14 17:00:00 25.4 14 Sudoeste 39 Oeste 0 -- -- 26
2019-06-14 16:00:00 24.7 18 Oeste 43 Oeste 0 -- -- 25
2019-06-14 15:00:00 24.4 13 Sudoeste 35 Oeste 0 -- -- 23
2019-06-14 14:00:00 23.8 11 Sudoeste 32 Oeste 0 -- -- 21
2019-06-14 13:00:00 22.6 8 Sudoeste 20 Oeste 0 -- -- 39
2019-06-14 12:00:00 20.3 5 Este 14 Sudeste 0 -- -- 54
2019-06-14 11:00:00 17.6 5 Este 12 Sudeste 0 -- -- 63
2019-06-14 10:00:00 14 3 Este 13 Norte 0 -- -- 75
2019-06-14 09:00:00 11.2 5 Nordeste 12 Nordeste 0 -- -- 85
2019-06-14 08:00:00 9.4 3 Norte 7 Este 0 -- -- 93
2019-06-14 07:00:00 6.5 0 Calma 5 Oeste 0 -- -- 95
2019-06-14 06:00:00 6.1 4 Oeste 5 Oeste 0 -- -- 91
2019-06-14 05:00:00 6.9 0 Calma 3 Noroeste 0 -- -- 89
2019-06-14 04:00:00 8.6 0 Calma 7 Nordeste 0 -- -- 85
2019-06-14 03:00:00 9.4 3 Nordeste 9 Nordeste 0 -- -- 84
2019-06-14 02:00:00 10.1 3 Nordeste 13 Nordeste 0 -- -- 81
2019-06-14 01:00:00 11.1 2 Norte 12 Norte 0 -- -- 75
2019-06-14 00:00:00 12.8 5 Norte 19 Noroeste 0 -- -- 67
2019-06-13 23:00:00 15.6 2 Norte 19 Oeste 0 -- -- 41
2019-06-13 22:00:00 18.5 11 Oeste 31 Oeste 0 -- -- 34
2019-06-13 21:00:00 21 18 Oeste 34 Oeste 0 -- -- 27
2019-06-13 20:00:00 23.9 15 Oeste 33 Noroeste 0 -- -- 25
2019-06-13 19:00:00 25.7 8 Sudoeste 31 Oeste 0 -- -- 23
2019-06-13 18:00:00 25.7 15 Oeste 35 Oeste 0 -- -- 22
2019-06-13 17:00:00 25.8 14 Sudoeste 40 Sudoeste 0 -- -- 22
2019-06-13 16:00:00 25.6 15 Sudoeste 40 Sudoeste 0 -- -- 22
2019-06-13 15:00:00 24.7 14 Sudoeste 30 Sur 0 -- -- 21
2019-06-13 14:00:00 23.6 10 Sudoeste 27 Oeste 0 -- -- 27
2019-06-13 13:00:00 22 11 Sudoeste 24 Sudoeste 0 -- -- 31
2019-06-13 12:00:00 18.8 6 Este 14 Sudeste 0 -- -- 49
2019-06-13 11:00:00 15.7 3 Este 15 Sudeste 0 -- -- 59
2019-06-13 10:00:00 12.2 6 Sudeste 11 Sudeste 0 -- -- 71
2019-06-13 09:00:00 9 5 Este 10 Nordeste 0 -- -- 85
2019-06-13 08:00:00 7.9 4 Este 8 Nordeste 0 -- -- 88
2019-06-13 07:00:00 4.8 4 Sudeste 8 Sudeste 0 -- -- 93
2019-06-13 06:00:00 4.9 0 Calma 6 Norte 0 -- -- 89
2019-06-13 05:00:00 6.3 2 Noroeste 8 Noroeste 0 -- -- 90
2019-06-13 04:00:00 6.1 4 Noroeste 8 Noroeste 0 -- -- 88
2019-06-13 03:00:00 8 3 Noroeste 7 Noroeste 0 -- -- 82
2019-06-13 02:00:00 9.4 3 Nordeste 8 Este 0 -- -- 76
2019-06-13 01:00:00 10.4 5 Nordeste 13 Este 0 -- -- 74
2019-06-13 00:00:00 10.5 3 Noroeste 14 Nordeste 0 -- -- 70
2019-06-12 23:00:00 9.8 5 Oeste 6 Oeste 0 -- -- 47
2019-06-12 22:00:00 14.1 3 Oeste 9 Noroeste 0 -- -- 39
2019-06-12 21:00:00 18.7 4 Norte 15 Noroeste 0 -- -- 32
2019-06-12 20:00:00 21.1 10 Noroeste 20 Oeste 0 -- -- 25
2019-06-12 19:00:00 21.3 6 Norte 19 Noroeste 0 -- -- 26
2019-06-12 18:00:00 21.4 10 Noroeste 27 Noroeste 0 -- -- 25
2019-06-12 17:00:00 21 5 Este 19 Oeste 0 -- -- 29
2019-06-12 16:00:00 20.2 5 Norte 23 Noroeste 0 -- -- 29
2019-06-12 15:00:00 19.8 8 Sudoeste 30 Sudoeste 0 -- -- 28
2019-06-12 14:00:00 18.5 8 Sudoeste 25 Sudoeste 0 -- -- 32
2019-06-12 13:00:00 16.7 10 Noroeste 27 Oeste 0 -- -- 37
2019-06-12 12:00:00 15.4 9 Oeste 24 Oeste 0 -- -- 39
2019-06-12 11:00:00 13.6 9 Noroeste 21 Oeste 0 -- -- 44
2019-06-12 10:00:00 11.3 8 Noroeste 17 Noroeste 0 -- -- 53
2019-06-12 09:00:00 8.3 11 Noroeste 19 Noroeste 0 -- -- 64
2019-06-12 08:00:00 5.8 3 Este 8 Noroeste 0 -- -- 79
2019-06-12 07:00:00 2.5 4 Noroeste 13 Noroeste 0 -- -- 90
2019-06-12 06:00:00 2.2 0 Calma 4 Norte 0 -- -- 89
2019-06-12 05:00:00 2.5 0 Calma 4 Noroeste 0 -- -- 87
2019-06-12 04:00:00 2.9 0 Calma 6 Oeste 0 -- -- 82
2019-06-12 03:00:00 4 0 Calma 6 Oeste 0 -- -- 79
2019-06-12 02:00:00 5.7 2 Oeste 9 Noroeste 0 -- -- 73
2019-06-12 01:00:00 7.5 5 Noroeste 10 Noroeste 0 -- -- 68
2019-06-12 00:00:00 9.5 4 Norte 9 Noroeste 0 -- -- 60
2019-06-11 23:00:00 11.1 5 Noroeste 16 Nordeste 0 -- -- 53
2019-06-11 22:00:00 13.1 6 Norte 26 Noroeste 0 -- -- 47
2019-06-11 21:00:00 15 17 Noroeste 32 Noroeste 0 -- -- 45
2019-06-11 20:00:00 17.7 18 Noroeste 31 Norte 0 -- -- 35
2019-06-11 19:00:00 17.9 15 Noroeste 27 Noroeste 0 -- -- 33
2019-06-11 18:00:00 17.4 4 Norte 20 Norte 0 -- -- 37
2019-06-11 17:00:00 17 6 Nordeste 17 Nordeste 0 -- -- 39
2019-06-11 16:00:00 17.4 6 Noroeste 23 Norte 0 -- -- 40
2019-06-11 15:00:00 17.2 11 Norte 23 Noroeste 0 -- -- 36
2019-06-11 14:00:00 16.2 6 Norte 23 Norte 0 -- -- 40
2019-06-11 13:00:00 16.4 7 Nordeste 22 Nordeste 0 -- -- 42
2019-06-11 12:00:00 15 10 Nordeste 26 Norte 0 -- -- 49
2019-06-11 11:00:00 12.6 9 Norte 21 Noroeste 0 -- -- 58
2019-06-11 10:00:00 10.6 7 Noroeste 14 Noroeste 0 -- -- 69
2019-06-11 09:00:00 9.3 0 Calma 8 Este 0 -- -- 76
2019-06-11 08:00:00 7.9 0 Calma 3 Oeste 0 -- -- 84
2019-06-11 07:00:00 6.9 2 Nordeste 6 Nordeste 0 -- -- 87
2019-06-11 06:00:00 7 0 Calma 4 Nordeste 0 -- -- 84
2019-06-11 05:00:00 8.3 3 Nordeste 12 Este 0 -- -- 82
2019-06-11 04:00:00 8.7 6 Nordeste 13 Nordeste 0 -- -- 80
2019-06-11 03:00:00 8.9 4 Nordeste 19 Nordeste 0 -- -- 79
2019-06-11 02:00:00 9.2 5 Nordeste 17 Nordeste 0 -- -- 76
2019-06-11 01:00:00 9.6 5 Nordeste 15 Nordeste 0 -- -- 71
2019-06-11 00:00:00 10.5 9 Nordeste 20 Nordeste 0 -- -- 71
2019-06-10 23:00:00 11.7 6 Nordeste 21 Norte 0 -- -- 69
2019-06-10 22:00:00 13.6 13 Norte 23 Norte 0 -- -- 64
2019-06-10 21:00:00 18.4 3 Norte 19 Norte 0 -- -- 42
2019-06-10 20:00:00 20 8 Noroeste 15 Norte 0 -- -- 34
2019-06-10 19:00:00 20.4 5 Norte 13 Noroeste 0 -- -- 35
2019-06-10 18:00:00 20.2 7 Norte 18 Norte 0 -- -- 37
2019-06-10 17:00:00 19.4 5 Nordeste 17 Norte 0 -- -- 39
2019-06-10 16:00:00 19.3 10 Norte 21 Norte 0 -- -- 40
2019-06-10 15:00:00 18.7 7 Nordeste 21 Noroeste 0 -- -- 44
2019-06-10 14:00:00 17.5 8 Norte 22 Norte 0 -- -- 45
2019-06-10 13:00:00 16.3 6 Norte 21 Noroeste 0 -- -- 49
2019-06-10 12:00:00 14.9 8 Noroeste 18 Noroeste 0 -- -- 57
2019-06-10 11:00:00 14.2 6 Norte 16 Nordeste 0 -- -- 62
2019-06-10 10:00:00 12 6 Nordeste 13 Nordeste 0 -- -- 71
2019-06-10 09:00:00 9.2 3 Noroeste 8 Noroeste 0 -- -- 85
2019-06-10 08:00:00 8.1 5 Noroeste 12 Noroeste 0 -- -- 88
2019-06-10 07:00:00 7 4 Noroeste 9 Noroeste 0 -- -- 91
2019-06-10 06:00:00 7.9 5 Noroeste 9 Noroeste 0 -- -- 90
2019-06-10 05:00:00 8.1 3 Nordeste 8 Nordeste 0 -- -- 87
2019-06-10 04:00:00 8.5 3 Nordeste 9 Nordeste 0 -- -- 86
2019-06-10 03:00:00 8.8 0 Calma 13 Norte 0 -- -- 84
2019-06-10 02:00:00 9.4 4 Norte 15 Nordeste 0 -- -- 82
2019-06-10 01:00:00 9.9 4 Norte 15 Norte 0 -- -- 80
2019-06-10 00:00:00 10.5 5 Nordeste 17 Norte 0 -- -- 78
2019-06-09 23:00:00 11.2 6 Nordeste 35 Nordeste 0 -- -- 76
2019-06-09 22:00:00 12.6 8 Nordeste 26 Nordeste 0 -- -- 72
2019-06-09 21:00:00 14.7 10 Nordeste 35 Nordeste 0 -- -- 66
2019-06-09 20:00:00 21.7 17 Noroeste 32 Oeste 0 -- -- 44
2019-06-09 19:00:00 23 10 Oeste 30 Oeste 0 -- -- 29
2019-06-09 18:00:00 25.2 11 Oeste 30 Oeste 0 -- -- 29
2019-06-09 17:00:00 24.5 13 Oeste 30 Oeste 0 -- -- 31
2019-06-09 16:00:00 23.9 14 Oeste 33 Oeste 0 -- -- 33
2019-06-09 15:00:00 23.9 11 Sudoeste 32 Oeste 0 -- -- 36
2019-06-09 14:00:00 22.4 9 Oeste 23 Oeste 0 -- -- 42
2019-06-09 13:00:00 20.6 5 Noroeste 17 Oeste 0 -- -- 50
2019-06-09 12:00:00 18.1 9 Noroeste 16 Noroeste 0 -- -- 60
2019-06-09 11:00:00 15.7 4 Noroeste 9 Noroeste 0 -- -- 72
2019-06-09 10:00:00 12.6 2 Este 6 Noroeste 0 -- -- 83
2019-06-09 09:00:00 11.1 2 Norte 9 Sudeste 0 -- -- 87
2019-06-09 08:00:00 10.4 0 Calma 8 Este 0 -- -- 89
2019-06-09 07:00:00 9.5 2 Este 7 Este 0 -- -- 90
2019-06-09 06:00:00 8.8 4 Noroeste 7 Noroeste 0 -- -- 94
2019-06-09 05:00:00 8.9 2 Norte 6 Nordeste 0 -- -- 89
2019-06-09 04:00:00 9.8 3 Norte 12 Este 0 -- -- 87
2019-06-09 03:00:00 10.4 4 Nordeste 12 Este 0 -- -- 86
2019-06-09 02:00:00 10.9 6 Nordeste 20 Este 0 -- -- 84
2019-06-09 01:00:00 11.8 6 Nordeste 20 Este 0 -- -- 79
2019-06-09 00:00:00 13.4 5 Nordeste 20 Este 0 -- -- 74
2019-06-08 23:00:00 15.7 5 Norte 16 Norte 0 -- -- 68
2019-06-08 22:00:00 19.1 3 Norte 14 Este 0 -- -- 49
2019-06-08 21:00:00 20.6 8 Este 15 Este 0 -- -- 45
2019-06-08 20:00:00 22.6 7 Noroeste 14 Norte 0 -- -- 33
2019-06-08 19:00:00 24.6 6 Noroeste 13 Norte 0 -- -- 27
2019-06-08 18:00:00 24.2 5 Sudeste 14 Sudeste 0 -- -- 27
2019-06-08 17:00:00 24.4 8 Sudeste 26 Sudeste 0 -- -- 34
2019-06-08 16:00:00 23.3 5 Sudeste 25 Sudeste 0 -- -- 29
2019-06-08 15:00:00 22.7 12 Sudeste 29 Sudeste 0 -- -- 38
2019-06-08 14:00:00 21.2 5 Este 15 Sudeste 0 -- -- 36
2019-06-08 13:00:00 20.2 10 Este 21 Sudeste 0 -- -- 39
2019-06-08 12:00:00 18.6 9 Sudeste 18 Nordeste 0 -- -- 41
2019-06-08 11:00:00 15.4 3 Este 12 Nordeste 0 -- -- 53
2019-06-08 10:00:00 11.5 4 Nordeste 11 Nordeste 0 -- -- 67
2019-06-08 09:00:00 8.1 5 Este 10 Nordeste 0 -- -- 82
2019-06-08 08:00:00 5.8 2 Norte 3 Norte 0 -- -- 92
2019-06-08 07:00:00 3 0 Calma 3 Nordeste 0 -- -- 92
2019-06-08 06:00:00 3.5 0 Calma 3 Sudeste 0 -- -- 92
2019-06-08 05:00:00 4.4 0 Calma 4 Sudoeste 0 -- -- 88
2019-06-08 04:00:00 6 2 Oeste 6 Norte 0 -- -- 86
2019-06-08 03:00:00 7 4 Noroeste 12 Noroeste 0 -- -- 85
2019-06-08 02:00:00 7.6 6 Noroeste 10 Noroeste 0 -- -- 81
2019-06-08 01:00:00 8.3 0 Calma 10 Noroeste 0 -- -- 69
2019-06-08 00:00:00 10 2 Noroeste 18 Noroeste 0 -- -- 63
2019-06-07 23:00:00 11.4 13 Noroeste 22 Oeste 0 -- -- 58
2019-06-07 22:00:00 12.6 5 Oeste 18 Oeste 0 -- -- 55
2019-06-07 21:00:00 15.8 16 Oeste 27 Oeste 0 -- -- 40
2019-06-07 20:00:00 18.5 10 Sudoeste 28 Oeste 0 -- -- 34
2019-06-07 19:00:00 18.2 14 Oeste 28 Oeste 0 -- -- 35
2019-06-07 18:00:00 18.7 12 Oeste 29 Sudoeste 0 -- -- 35
2019-06-07 17:00:00 19.2 14 Oeste 33 Oeste 0 -- -- 34
2019-06-07 16:00:00 18.8 14 Oeste 33 Oeste 0 -- -- 33
2019-06-07 15:00:00 17.4 14 Oeste 35 Oeste 0 -- -- 41
2019-06-07 14:00:00 16.3 17 Oeste 33 Oeste 0 -- -- 44
2019-06-07 13:00:00 15.1 16 Oeste 34 Oeste 0 -- -- 50
2019-06-07 12:00:00 13.9 19 Oeste 36 Oeste 0 -- -- 57
2019-06-07 11:00:00 11.6 19 Oeste 39 Oeste 0 -- -- 66
2019-06-07 10:00:00 10.5 22 Oeste 38 Oeste 0 -- -- 72
2019-06-07 09:00:00 8.9 24 Oeste 43 Oeste 0 -- -- 79
2019-06-07 08:00:00 7.8 18 Oeste 33 Sudoeste 0 -- -- 85
2019-06-07 07:00:00 7.1 15 Sudoeste 32 Sudoeste 0 -- -- 89
2019-06-07 06:00:00 6.8 14 Sudoeste 36 Sudoeste 0 -- -- 89
2019-06-07 05:00:00 7.1 18 Sudoeste 40 Sudoeste 0 -- -- 88
2019-06-07 04:00:00 7.5 17 Sudoeste 36 Sudoeste 0 -- -- 87
2019-06-07 03:00:00 7.9 14 Sudoeste 34 Sudoeste 0 -- -- 87
2019-06-07 02:00:00 8.9 14 Sudoeste 34 Sudoeste 0 -- -- 86
2019-06-07 01:00:00 8.9 14 Oeste 36 Oeste 0.6 -- -- 86
2019-06-07 00:00:00 9.3 28 Oeste 43 Oeste 1.2 -- -- 87
2019-06-06 23:00:00 11.3 22 Oeste 59 Oeste 0.8 -- -- 89
2019-06-06 22:00:00 15.8 23 Sudoeste 57 Sudoeste 0 -- -- 57
2019-06-06 21:00:00 14.9 17 Oeste 49 Sudoeste 0.2 -- -- 68
2019-06-06 20:00:00 19.3 20 Sudoeste 57 Sudoeste 0 -- -- 41
2019-06-06 19:00:00 21.2 23 Sudoeste 44 Sudoeste 0 -- -- 35
2019-06-06 18:00:00 23.1 25 Sudoeste 50 Sudoeste 0 -- -- 30
2019-06-06 17:00:00 23.6 17 Sudoeste 54 Sudoeste 0 -- -- 27
2019-06-06 16:00:00 22.5 14 Sur 36 Sudoeste 0 -- -- 27
2019-06-06 15:00:00 20.2 12 Sur 37 Sudoeste 0 -- -- 31
2019-06-06 14:00:00 19.3 13 Sur 34 Sudoeste 0 -- -- 40
2019-06-06 13:00:00 18.7 10 Sudoeste 28 Sudoeste 0 -- -- 40
2019-06-06 12:00:00 17.4 9 Sur 28 Sudeste 0 -- -- 42
2019-06-06 11:00:00 15.3 9 Sudoeste 21 Sur 0 -- -- 49
2019-06-06 10:00:00 11.6 4 Este 9 Este 0 -- -- 68
2019-06-06 09:00:00 8.1 3 Este 5 Este 0 -- -- 82
2019-06-06 08:00:00 6.1 0 Calma 4 Oeste 0 -- -- 92
2019-06-06 07:00:00 4.2 0 Calma 6 Sudoeste 0 -- -- 92
2019-06-06 06:00:00 4.7 0 Calma 5 Oeste 0 -- -- 91
2019-06-06 05:00:00 5.9 0 Calma 6 Este 0 -- -- 89
2019-06-06 04:00:00 6.8 4 Noroeste 7 Noroeste 0 -- -- 88
2019-06-06 03:00:00 7.5 3 Oeste 5 Oeste 0 -- -- 86
2019-06-06 02:00:00 8.6 3 Noroeste 8 Noroeste 0 -- -- 81
2019-06-06 01:00:00 9.6 5 Noroeste 12 Norte 0 -- -- 77
2019-06-06 00:00:00 10.9 4 Norte 9 Norte 0 -- -- 74
2019-06-05 23:00:00 11.8 5 Noroeste 13 Noroeste 0 -- -- 73
2019-06-05 22:00:00 13.3 9 Noroeste 28 Noroeste 0 -- -- 52
2019-06-05 21:00:00 14.8 14 Noroeste 34 Noroeste 0 -- -- 45
2019-06-05 20:00:00 16.5 18 Oeste 33 Oeste 0 -- -- 36
2019-06-05 19:00:00 17.5 19 Noroeste 39 Oeste 0 -- -- 33
2019-06-05 18:00:00 19.1 19 Oeste 34 Oeste 0 -- -- 34
2019-06-05 17:00:00 19 14 Noroeste 33 Oeste 0 -- -- 36
2019-06-05 16:00:00 19.3 17 Oeste 43 Oeste 0 -- -- 35
2019-06-05 15:00:00 18 18 Oeste 37 Oeste 0 -- -- 40
2019-06-05 14:00:00 17.1 18 Noroeste 37 Oeste 0 -- -- 45
2019-06-05 13:00:00 15.9 19 Oeste 33 Oeste 0 -- -- 48
2019-06-05 12:00:00 14.6 13 Noroeste 29 Oeste 0 -- -- 56
2019-06-05 11:00:00 13 11 Noroeste 23 Oeste 0 -- -- 70
2019-06-05 10:00:00 10.5 10 Oeste 24 Oeste 0 -- -- 80
2019-06-05 09:00:00 9.3 14 Oeste 26 Oeste 0 -- -- 87
2019-06-05 08:00:00 9.4 4 Este 10 Sudeste 0 -- -- 86
2019-06-05 07:00:00 9.2 2 Nordeste 9 Norte 0 -- -- 89
2019-06-05 06:00:00 9.3 4 Nordeste 15 Norte 0 -- -- 88
2019-06-05 05:00:00 9.5 4 Noroeste 12 Este 0.4 -- -- 89
2019-06-05 04:00:00 9.7 5 Noroeste 13 Noroeste 1.2 -- -- 90
2019-06-05 03:00:00 9.9 8 Noroeste 17 Noroeste 1.4 -- -- 88
2019-06-05 02:00:00 11.8 8 Norte 22 Nordeste 0.2 -- -- 80
2019-06-05 01:00:00 13.8 13 Noroeste 24 Oeste 0 -- -- 70
2019-06-05 00:00:00 16.1 9 Oeste 19 Sudoeste 0 -- -- 50
2019-06-04 23:00:00 16.6 11 Oeste 20 Oeste 0 -- -- 52
2019-06-04 22:00:00 17.3 12 Oeste 45 Oeste 0 -- -- 53
2019-06-04 21:00:00 19 19 Oeste 40 Oeste 0 -- -- 51
2019-06-04 20:00:00 20.4 25 Oeste 41 Oeste 0 -- -- 48
2019-06-04 19:00:00 22 30 Oeste 46 Oeste 0 -- -- 47
2019-06-04 18:00:00 22.7 22 Oeste 38 Oeste 0 -- -- 44
2019-06-04 17:00:00 23.5 19 Oeste 33 Oeste 0 -- -- 40
2019-06-04 16:00:00 24.1 16 Oeste 39 Noroeste 0 -- -- 39
2019-06-04 15:00:00 23.5 13 Sudoeste 37 Noroeste 0 -- -- 42
2019-06-04 14:00:00 23 13 Oeste 33 Oeste 0 -- -- 44
2019-06-04 13:00:00 21 12 Sudoeste 37 Oeste 0 -- -- 53
2019-06-04 12:00:00 19.9 13 Oeste 32 Sudoeste 0 -- -- 56
2019-06-04 11:00:00 18.7 15 Sudoeste 32 Sudoeste 0 -- -- 54
2019-06-04 10:00:00 16.8 11 Sudoeste 24 Oeste 0 -- -- 64
2019-06-04 09:00:00 14.2 12 Oeste 21 Sudoeste 0 -- -- 72
2019-06-04 08:00:00 12.8 3 Sur 8 Sudeste 0 -- -- 84
2019-06-04 07:00:00 11.8 2 Sudeste 9 Este 0 -- -- 86
2019-06-04 06:00:00 12.8 0 Calma 8 Sudeste 0 -- -- 82
2019-06-04 05:00:00 14 2 Sudeste 14 Oeste 0 -- -- 80
2019-06-04 04:00:00 15.4 3 Sur 22 Sudoeste 0 -- -- 74
2019-06-04 03:00:00 17.1 8 Sudoeste 23 Oeste 0 -- -- 69
2019-06-04 02:00:00 18.7 15 Oeste 28 Oeste 0 -- -- 66
2019-06-04 01:00:00 20.3 17 Oeste 31 Oeste 0 -- -- 60
2019-06-04 00:00:00 18.7 8 Oeste 17 Oeste 0 -- -- 55
2019-06-03 23:00:00 19.7 4 Sudoeste 9 Oeste 0 -- -- 46
2019-06-03 22:00:00 22.9 5 Oeste 23 Oeste 0 -- -- 40
2019-06-03 21:00:00 26.1 16 Oeste 35 Oeste 0 -- -- 32
2019-06-03 20:00:00 28.8 16 Oeste 33 Sudoeste 0 -- -- 29
2019-06-03 19:00:00 30.1 17 Oeste 37 Oeste 0 -- -- 26
2019-06-03 18:00:00 31.2 19 Oeste 36 Oeste 0 -- -- 24
2019-06-03 17:00:00 31 17 Oeste 35 Oeste 0 -- -- 24
2019-06-03 16:00:00 31.4 11 Oeste 28 Oeste 0 -- -- 24
2019-06-03 15:00:00 30.2 10 Sudoeste 27 Oeste 0 -- -- 25
2019-06-03 14:00:00 29.1 9 Oeste 28 Sudoeste 0 -- -- 26
2019-06-03 13:00:00 28.2 6 Sudoeste 19 Sudoeste 0 -- -- 29
2019-06-03 12:00:00 25.2 7 Sudoeste 18 Sudoeste 0 -- -- 35
2019-06-03 11:00:00 23.6 8 Oeste 21 Oeste 0 -- -- 34
2019-06-03 10:00:00 20.9 9 Oeste 15 Sudoeste 0 -- -- 39
2019-06-03 09:00:00 16.3 0 Calma 8 Sudoeste 0 -- -- 53
2019-06-03 08:00:00 13.7 3 Oeste 9 Sudoeste 0 -- -- 63
2019-06-03 07:00:00 14.2 2 Noroeste 6 Noroeste 0 -- -- 59
2019-06-03 06:00:00 15.1 2 Sudeste 7 Sudeste 0 -- -- 57
2019-06-03 05:00:00 16.2 4 Sudeste 15 Sudoeste 0 -- -- 53
2019-06-03 04:00:00 16.1 4 Sudeste 11 Oeste 0 -- -- 56
2019-06-03 03:00:00 16.2 2 Sur 14 Oeste 0 -- -- 50
2019-06-03 02:00:00 15.8 0 Calma 8 Oeste 0 -- -- 49
2019-06-03 01:00:00 16.6 0 Calma 5 Sudeste 0 -- -- 51
2019-06-03 00:00:00 18.1 0 Calma 6 Oeste 0 -- -- 45
2019-06-02 23:00:00 19.7 0 Calma 11 Oeste 0 -- -- 36
2019-06-02 22:00:00 23.2 8 Oeste 20 Oeste 0 -- -- 28
2019-06-02 21:00:00 26.9 13 Oeste 30 Oeste 0 -- -- 23
2019-06-02 20:00:00 28.4 20 Oeste 37 Oeste 0 -- -- 21
2019-06-02 19:00:00 29.9 24 Oeste 37 Oeste 0 -- -- 21
2019-06-02 18:00:00 30.8 20 Oeste 41 Oeste 0 -- -- 22
2019-06-02 17:00:00 31.6 17 Oeste 42 Noroeste 0 -- -- 21
2019-06-02 16:00:00 31.4 13 Oeste 36 Oeste 0 -- -- 21
2019-06-02 15:00:00 31.1 20 Oeste 33 Oeste 0 -- -- 21
2019-06-02 14:00:00 31.9 13 Oeste 39 Oeste 0 -- -- 26
2019-06-02 13:00:00 31 12 Oeste 25 Oeste 0 -- -- 27
2019-06-02 12:00:00 28.3 4 Este 10 Sudeste 0 -- -- 43
2019-06-02 11:00:00 24.6 4 Sudeste 11 Sudeste 0 -- -- 50
2019-06-02 10:00:00 20.4 8 Sudeste 13 Este 0 -- -- 56
2019-06-02 09:00:00 16.1 3 Este 6 Noroeste 0 -- -- 68
2019-06-02 08:00:00 13.4 0 Calma 5 Oeste 0 -- -- 77
2019-06-02 07:00:00 10.7 0 Calma 4 Oeste 0 -- -- 79
2019-06-02 06:00:00 11.8 0 Calma 5 Sudoeste 0 -- -- 76
2019-06-02 05:00:00 12.2 0 Calma 8 Oeste 0 -- -- 73
2019-06-02 04:00:00 13.5 2 Oeste 8 Sudoeste 0 -- -- 68
2019-06-02 03:00:00 14.5 5 Oeste 9 Oeste 0 -- -- 66
2019-06-02 02:00:00 14.9 2 Sur 7 Noroeste 0 -- -- 62
2019-06-02 01:00:00 16.5 4 Sudeste 12 Oeste 0 -- -- 56
2019-06-02 00:00:00 18.1 0 Calma 10 Norte 0 -- -- 47
2019-06-01 23:00:00 19.9 6 Sur 10 Sudeste 0 -- -- 39
2019-06-01 22:00:00 22.8 3 Sur 11 Noroeste 0 -- -- 37
2019-06-01 21:00:00 28.8 7 Oeste 14 Noroeste 0 -- -- 26
2019-06-01 20:00:00 32.2 6 Noroeste 19 Noroeste 0 -- -- 20
2019-06-01 19:00:00 32.8 6 Norte 18 Noroeste 0 -- -- 20
2019-06-01 18:00:00 32.6 5 Este 16 Norte 0 -- -- 23
2019-06-01 17:00:00 32.9 6 Norte 23 Noroeste 0 -- -- 23
2019-06-01 16:00:00 32.3 7 Norte 17 Noroeste 0 -- -- 23
2019-06-01 15:00:00 31.7 4 Sudeste 17 Nordeste 0 -- -- 28
2019-06-01 14:00:00 31 4 Este 14 Sudeste 0 -- -- 31
2019-06-01 13:00:00 29.5 3 Este 7 Este 0 -- -- 28
2019-06-01 12:00:00 27 0 Calma 9 Sudeste 0 -- -- 32
2019-06-01 11:00:00 23.7 3 Sudeste 6 Sudoeste 0 -- -- 43
2019-06-01 10:00:00 18.9 3 Sudeste 4 Sudeste 0 -- -- 54
2019-06-01 09:00:00 14.2 0 Calma 8 Norte 0 -- -- 67
2019-06-01 08:00:00 11.7 5 Norte 7 Norte 0 -- -- 77
2019-06-01 07:00:00 8.6 0 Calma 5 Oeste 0 -- -- 81
2019-06-01 06:00:00 10.1 0 Calma 5 Norte 0 -- -- 74
2019-06-01 05:00:00 11 4 Sur 6 Sudeste 0 -- -- 74
2019-06-01 04:00:00 11 0 Calma 7 Sudoeste 0 -- -- 72
2019-06-01 03:00:00 11.4 2 Oeste 8 Sudoeste 0 -- -- 70
2019-06-01 02:00:00 12.4 0 Calma 5 Oeste 0 -- -- 64
2019-06-01 01:00:00 14 4 Oeste 5 Oeste 0 -- -- 57
2019-06-01 00:00:00 15.9 4 Sudoeste 5 Sudoeste 0 -- -- 50
2019-05-31 23:00:00 16.7 3 Sudoeste 7 Sudoeste 0 -- -- 45
2019-05-31 22:00:00 20.3 5 Sudoeste 6 Sudoeste 0 -- -- 37
2019-05-31 21:00:00 27.6 0 Calma 14 Norte 0 -- -- 31
2019-05-31 20:00:00 30 9 Norte 17 Noroeste 0 -- -- 22
2019-05-31 19:00:00 30.9 10 Noroeste 19 Norte 0 -- -- 21
2019-05-31 18:00:00 30.8 9 Norte 19 Norte 0 -- -- 22
2019-05-31 17:00:00 30.5 8 Norte 23 Norte 0 -- -- 25
2019-05-31 16:00:00 29.9 10 Noroeste 19 Noroeste 0 -- -- 30
2019-05-31 15:00:00 28.9 8 Noroeste 20 Norte 0 -- -- 31
2019-05-31 14:00:00 27.9 12 Noroeste 21 Noroeste 0 -- -- 34
2019-05-31 13:00:00 27.3 4 Este 16 Este 0 -- -- 38
2019-05-31 12:00:00 25.1 4 Norte 16 Norte 0 -- -- 44
2019-05-31 11:00:00 22 3 Este 8 Norte 0 -- -- 51
2019-05-31 10:00:00 17.1 0 Calma 5 Norte 0 -- -- 65
2019-05-31 09:00:00 13.1 0 Calma 4 Noroeste 0 -- -- 80
2019-05-31 08:00:00 10.8 0 Calma 5 Norte 0 -- -- 87
2019-05-31 07:00:00 7.7 0 Calma 5 Oeste 0 -- -- 89
2019-05-31 06:00:00 8.3 3 Oeste 5 Oeste 0 -- -- 87
2019-05-31 05:00:00 9.8 2 Oeste 5 Oeste 0 -- -- 85
2019-05-31 04:00:00 10.9 0 Calma 7 Noroeste 0 -- -- 82
2019-05-31 03:00:00 12.1 2 Noroeste 8 Oeste 0 -- -- 78
2019-05-31 02:00:00 13.2 2 Nordeste 5 Nordeste 0 -- -- 72
2019-05-31 01:00:00 15.2 3 Noroeste 5 Noroeste 0 -- -- 65
2019-05-31 00:00:00 15.9 3 Oeste 5 Oeste 0 -- -- 59
2019-05-30 23:00:00 19 2 Nordeste 10 Nordeste 0 -- -- 49
2019-05-30 22:00:00 21.7 4 Este 18 Nordeste 0 -- -- 45
2019-05-30 21:00:00 24.2 9 Este 21 Nordeste 0 -- -- 39
2019-05-30 20:00:00 26.3 9 Este 28 Este 0 -- -- 35
2019-05-30 19:00:00 27.6 8 Nordeste 23 Noroeste 0 -- -- 32
2019-05-30 18:00:00 27.5 12 Nordeste 30 Nordeste 0 -- -- 34
2019-05-30 17:00:00 27.9 8 Nordeste 29 Este 0 -- -- 29
2019-05-30 16:00:00 27.5 8 Nordeste 21 Nordeste 0 -- -- 33
2019-05-30 15:00:00 26.9 5 Este 19 Este 0 -- -- 35
2019-05-30 14:00:00 25.5 7 Norte 19 Este 0 -- -- 34
2019-05-30 13:00:00 24.1 7 Este 21 Sudeste 0 -- -- 42
2019-05-30 12:00:00 21.9 4 Nordeste 18 Este 0 -- -- 47
2019-05-30 11:00:00 18.3 8 Noroeste 14 Noroeste 0 -- -- 61
2019-05-30 10:00:00 14.1 5 Norte 9 Norte 0 -- -- 74
2019-05-30 09:00:00 10.2 7 Norte 12 Noroeste 0 -- -- 85
2019-05-30 08:00:00 8.9 5 Norte 10 Norte 0 -- -- 87
2019-05-30 07:00:00 7.4 4 Noroeste 12 Noroeste 0 -- -- 90
2019-05-30 06:00:00 7.7 6 Noroeste 10 Noroeste 0 -- -- 92
2019-05-30 05:00:00 7.1 2 Oeste 6 Oeste 0 -- -- 85
2019-05-30 04:00:00 7.9 4 Noroeste 6 Sudoeste 0 -- -- 86
2019-05-30 03:00:00 9.1 2 Este 6 Oeste 0 -- -- 85
2019-05-30 02:00:00 9.8 2 Nordeste 10 Sur 0 -- -- 78
2019-05-30 01:00:00 12.1 5 Este 14 Sudeste 0 -- -- 77
2019-05-30 00:00:00 12.8 5 Sudeste 10 Nordeste 0 -- -- 72
2019-05-29 23:00:00 15 2 Nordeste 19 Sudeste 0 -- -- 64
2019-05-29 22:00:00 16.2 5 Este 15 Nordeste 0 -- -- 62
2019-05-29 21:00:00 19.1 11 Nordeste 23 Nordeste 0 -- -- 47
2019-05-29 20:00:00 20.7 11 Nordeste 24 Nordeste 0 -- -- 44
2019-05-29 19:00:00 21.7 11 Nordeste 22 Este 0 -- -- 43
2019-05-29 18:00:00 21.9 10 Nordeste 26 Nordeste 0 -- -- 43
2019-05-29 17:00:00 21.8 8 Nordeste 30 Nordeste 0 -- -- 45
2019-05-29 16:00:00 20.8 12 Nordeste 28 Nordeste 0 -- -- 46
2019-05-29 15:00:00 20.2 11 Nordeste 32 Nordeste 0 -- -- 48
2019-05-29 14:00:00 19.2 9 Nordeste 26 Este 0 -- -- 50
2019-05-29 13:00:00 18 11 Este 26 Nordeste 0 -- -- 55
2019-05-29 12:00:00 17 8 Nordeste 21 Nordeste 0 -- -- 55
2019-05-29 11:00:00 15.7 8 Nordeste 21 Nordeste 0 -- -- 56
2019-05-29 10:00:00 13.6 11 Nordeste 23 Nordeste 0 -- -- 62
2019-05-29 09:00:00 8.9 4 Noroeste 8 Norte 0 -- -- 78
2019-05-29 08:00:00 6.6 4 Noroeste 5 Norte 0 -- -- 87
2019-05-29 07:00:00 3.7 0 Calma 5 Noroeste 0 -- -- 91
2019-05-29 06:00:00 4 2 Sudoeste 5 Oeste 0 -- -- 90
2019-05-29 05:00:00 4.4 2 Sudoeste 5 Sudoeste 0 -- -- 89
2019-05-29 04:00:00 5.2 0 Calma 4 Sudoeste 0 -- -- 83
2019-05-29 03:00:00 7.6 3 Nordeste 10 Nordeste 0 -- -- 77
2019-05-29 02:00:00 8.6 3 Este 11 Este 0 -- -- 74
2019-05-29 01:00:00 9 5 Este 15 Este 0 -- -- 72
2019-05-29 00:00:00 9.7 8 Este 19 Nordeste 0 -- -- 70
2019-05-28 23:00:00 10.8 4 Este 22 Nordeste 0 -- -- 64
2019-05-28 22:00:00 12.3 8 Este 26 Este 0 -- -- 55
2019-05-28 21:00:00 14.6 10 Nordeste 34 Este 0 -- -- 49
2019-05-28 20:00:00 16.9 15 Nordeste 29 Nordeste 0 -- -- 48
2019-05-28 19:00:00 18.9 10 Este 31 Sudeste 0 -- -- 46
2019-05-28 18:00:00 20.6 12 Este 23 Sudeste 0 -- -- 44
2019-05-28 17:00:00 21.6 6 Este 17 Nordeste 0 -- -- 39
2019-05-28 16:00:00 20.4 5 Noroeste 20 Noroeste 0 -- -- 41
2019-05-28 15:00:00 19.9 8 Noroeste 22 Nordeste 0 -- -- 41
2019-05-28 14:00:00 17.6 10 Nordeste 25 Noroeste 0 -- -- 50
2019-05-28 13:00:00 16.7 9 Nordeste 21 Este 0 -- -- 50
2019-05-28 12:00:00 15.5 10 Nordeste 20 Nordeste 0 -- -- 51
2019-05-28 11:00:00 14.4 7 Nordeste 24 Nordeste 0 -- -- 51
2019-05-28 10:00:00 11.7 13 Nordeste 26 Nordeste 0 -- -- 61
2019-05-28 09:00:00 10.1 9 Nordeste 18 Nordeste 0 -- -- 72
2019-05-28 08:00:00 8.9 0 Calma 9 Sudeste 0 -- -- 79
2019-05-28 07:00:00 6.5 2 Sudeste 8 Nordeste 0 -- -- 85
2019-05-28 06:00:00 7.3 2 Este 10 Nordeste 0 -- -- 82
2019-05-28 05:00:00 8.1 3 Nordeste 15 Nordeste 0 -- -- 80
2019-05-28 04:00:00 8 4 Este 11 Este 0 -- -- 80
2019-05-28 03:00:00 8.5 4 Este 14 Nordeste 0 -- -- 78
2019-05-28 02:00:00 9.3 4 Nordeste 16 Este 0 -- -- 78
2019-05-28 01:00:00 9.8 4 Este 19 Nordeste 0 -- -- 79
2019-05-28 00:00:00 11 5 Este 18 Nordeste 0 -- -- 78
2019-05-27 23:00:00 12.2 10 Nordeste 24 Nordeste 0 -- -- 74
2019-05-27 22:00:00 14.2 9 Este 24 Nordeste 0 -- -- 70
2019-05-27 21:00:00 17 15 Este 31 Nordeste 0 -- -- 63
2019-05-27 20:00:00 20.6 12 Nordeste 26 Nordeste 0 -- -- 54
2019-05-27 19:00:00 22 12 Este 27 Nordeste 0 -- -- 51
2019-05-27 18:00:00 21.8 7 Este 23 Sur 0 -- -- 50
2019-05-27 17:00:00 23.5 4 Norte 18 Este 0 -- -- 45
2019-05-27 16:00:00 23.5 6 Nordeste 17 Nordeste 0 -- -- 44
2019-05-27 15:00:00 23.3 5 Nordeste 18 Noroeste 0 -- -- 47
2019-05-27 14:00:00 22.3 6 Este 16 Noroeste 0 -- -- 48
2019-05-27 13:00:00 21.2 5 Este 11 Este 0 -- -- 52
2019-05-27 12:00:00 19 4 Nordeste 12 Norte 0 -- -- 55
2019-05-27 11:00:00 17.1 3 Norte 8 Sudeste 0 -- -- 60
2019-05-27 10:00:00 13.5 2 Sur 8 Norte 0 -- -- 71
2019-05-27 09:00:00 10.5 3 Norte 8 Norte 0 -- -- 80
2019-05-27 08:00:00 8.4 5 Noroeste 9 Noroeste 0 -- -- 91
2019-05-27 07:00:00 6.4 3 Noroeste 5 Noroeste 0 -- -- 91
2019-05-27 06:00:00 7.3 0 Calma 4 Sudoeste 0 -- -- 89
2019-05-27 05:00:00 8.3 3 Noroeste 4 Noroeste 0 -- -- 89
2019-05-27 04:00:00 8.6 0 Calma 4 Sudoeste 0 -- -- 89
2019-05-27 03:00:00 9 0 Calma 5 Oeste 0 -- -- 87
2019-05-27 02:00:00 10.7 3 Sudoeste 8 Nordeste 0 -- -- 81
2019-05-27 01:00:00 12.3 4 Este 10 Sudeste 0 -- -- 81
2019-05-27 00:00:00 13.3 5 Este 15 Sudeste 0 -- -- 78
2019-05-26 23:00:00 15.1 10 Sudeste 16 Sudeste 0 -- -- 72
2019-05-26 22:00:00 17 6 Este 23 Nordeste 0 -- -- 62
2019-05-26 21:00:00 19.6 10 Este 23 Nordeste 0 -- -- 48
2019-05-26 20:00:00 21.9 11 Este 23 Nordeste 0 -- -- 46
2019-05-26 19:00:00 23.2 10 Este 21 Nordeste 0 -- -- 47
2019-05-26 18:00:00 23.7 8 Nordeste 22 Este 0 -- -- 45
2019-05-26 17:00:00 23.8 8 Nordeste 21 Noroeste 0 -- -- 45
2019-05-26 16:00:00 22.5 8 Norte 21 Noroeste 0 -- -- 47
2019-05-26 15:00:00 21.4 10 Norte 22 Norte 0 -- -- 48
2019-05-26 14:00:00 19.7 7 Norte 22 Nordeste 0 -- -- 52
2019-05-26 13:00:00 18.3 9 Este 19 Este 0 -- -- 58
2019-05-26 12:00:00 16.9 5 Nordeste 19 Este 0 -- -- 59
2019-05-26 11:00:00 15.4 9 Nordeste 20 Este 0 -- -- 63
2019-05-26 10:00:00 13.2 10 Nordeste 22 Nordeste 0 -- -- 72
2019-05-26 09:00:00 10 2 Norte 6 Noroeste 0 -- -- 84
2019-05-26 08:00:00 8.4 0 Calma 5 Este 0 -- -- 92
2019-05-26 07:00:00 5.2 2 Sudeste 6 Sudoeste 0 -- -- 94
2019-05-26 06:00:00 5.2 2 Sudoeste 5 Sudoeste 0 -- -- 91
2019-05-26 05:00:00 6 2 Oeste 7 Nordeste 0 -- -- 87
2019-05-26 04:00:00 7.5 3 Este 12 Nordeste 0 -- -- 84
2019-05-26 03:00:00 7.8 6 Sudeste 11 Este 0 -- -- 83
2019-05-26 02:00:00 8.5 0 Calma 13 Nordeste 0 -- -- 77
2019-05-26 01:00:00 9.9 3 Nordeste 10 Este 0 -- -- 74
2019-05-26 00:00:00 11 4 Nordeste 10 Nordeste 0 -- -- 73
2019-05-25 23:00:00 12 5 Este 13 Este 0 -- -- 68
2019-05-25 22:00:00 13.3 6 Este 24 Nordeste 0 -- -- 63
2019-05-25 21:00:00 15.1 13 Este 24 Este 0 -- -- 58
2019-05-25 20:00:00 17.4 10 Este 23 Nordeste 0 -- -- 51
2019-05-25 19:00:00 18.7 11 Nordeste 27 Nordeste 0 -- -- 48
2019-05-25 18:00:00 18.9 11 Nordeste 33 Este 0 -- -- 48
2019-05-25 17:00:00 19.1 11 Nordeste 26 Nordeste 0 -- -- 45
2019-05-25 16:00:00 18.9 8 Nordeste 28 Este 0 -- -- 47
2019-05-25 15:00:00 18.4 10 Nordeste 33 Nordeste 0 -- -- 47
2019-05-25 14:00:00 17.3 15 Este 30 Nordeste 0 -- -- 50
2019-05-25 13:00:00 16.5 12 Nordeste 34 Nordeste 0 -- -- 54
2019-05-25 12:00:00 16.2 15 Nordeste 28 Nordeste 0 -- -- 53
2019-05-25 11:00:00 14.9 12 Nordeste 35 Nordeste 0 -- -- 55
2019-05-25 10:00:00 12.9 14 Nordeste 29 Nordeste 0 -- -- 62
2019-05-25 09:00:00 10.3 12 Nordeste 25 Nordeste 0 -- -- 76
2019-05-25 08:00:00 7.4 5 Norte 9 Noroeste 0 -- -- 91
2019-05-25 07:00:00 4.6 0 Calma 5 Oeste 0 -- -- 91
2019-05-25 06:00:00 5.9 0 Calma 6 Norte 0 -- -- 92
2019-05-25 05:00:00 5.2 3 Oeste 4 Sudoeste 0 -- -- 87
2019-05-25 04:00:00 7.2 4 Oeste 9 Nordeste 0 -- -- 82
2019-05-25 03:00:00 8.9 4 Norte 22 Nordeste 0 -- -- 80
2019-05-25 02:00:00 9.4 12 Nordeste 27 Este 0 -- -- 79
2019-05-25 01:00:00 9.8 10 Nordeste 22 Nordeste 0 -- -- 78
2019-05-25 00:00:00 10.1 7 Nordeste 30 Este 0 -- -- 78
2019-05-24 23:00:00 10.6 13 Nordeste 25 Nordeste 0 -- -- 76
2019-05-24 22:00:00 11.5 8 Nordeste 26 Sudeste 0 -- -- 71
2019-05-24 21:00:00 13 16 Nordeste 37 Nordeste 0 -- -- 64
2019-05-24 20:00:00 14.9 13 Nordeste 33 Este 0 -- -- 55
2019-05-24 19:00:00 16.3 15 Nordeste 36 Este 0 -- -- 51
2019-05-24 18:00:00 17.5 17 Nordeste 33 Nordeste 0 -- -- 48
2019-05-24 17:00:00 18.4 14 Nordeste 31 Este 0 -- -- 47
2019-05-24 16:00:00 18.9 10 Nordeste 30 Este 0 -- -- 45
2019-05-24 15:00:00 18.7 10 Nordeste 27 Nordeste 0 -- -- 48
2019-05-24 14:00:00 17.9 11 Nordeste 26 Nordeste 0 -- -- 46
2019-05-24 13:00:00 16.9 9 Nordeste 28 Nordeste 0 -- -- 53
2019-05-24 12:00:00 15.8 12 Este 26 Nordeste 0 -- -- 59
2019-05-24 11:00:00 14.4 9 Nordeste 28 Nordeste 0 -- -- 59
2019-05-24 10:00:00 13.3 10 Nordeste 23 Nordeste 0 -- -- 60
2019-05-24 09:00:00 11.3 8 Nordeste 19 Norte 0 -- -- 70
2019-05-24 08:00:00 11.1 5 Nordeste 20 Norte 0 -- -- 72
2019-05-24 07:00:00 9.8 6 Nordeste 19 Nordeste 0 -- -- 80
2019-05-24 06:00:00 10.4 6 Nordeste 20 Nordeste 0 -- -- 79
2019-05-24 05:00:00 10.8 5 Nordeste 16 Nordeste 0 -- -- 77
2019-05-24 04:00:00 11.1 5 Nordeste 21 Este 0 -- -- 73
2019-05-24 03:00:00 11.6 7 Nordeste 18 Nordeste 0 -- -- 76
2019-05-24 02:00:00 11.9 5 Nordeste 21 Nordeste 0 -- -- 75
2019-05-24 01:00:00 12.1 4 Norte 21 Nordeste 0 -- -- 78
2019-05-24 00:00:00 12.4 6 Norte 18 Nordeste 0 -- -- 79
2019-05-23 23:00:00 13 10 Nordeste 22 Nordeste 0 -- -- 78
2019-05-23 22:00:00 14.7 8 Norte 33 Norte 0 -- -- 72
2019-05-23 21:00:00 17.9 6 Norte 30 Este 0 -- -- 64
2019-05-23 20:00:00 23.7 6 Sudeste 15 Norte 0 -- -- 47
2019-05-23 19:00:00 24.9 12 Noroeste 24 Oeste 0 -- -- 39
2019-05-23 18:00:00 24.4 7 Oeste 15 Oeste 0 -- -- 41
2019-05-23 17:00:00 23.7 5 Nordeste 24 Noroeste 0 -- -- 44
2019-05-23 16:00:00 24.1 6 Norte 23 Noroeste 0 -- -- 45
2019-05-23 15:00:00 23.2 9 Norte 22 Noroeste 0 -- -- 48
2019-05-23 14:00:00 23.4 10 Noroeste 19 Norte 0 -- -- 45
2019-05-23 13:00:00 21.6 8 Noroeste 21 Oeste 0 -- -- 51
2019-05-23 12:00:00 18.8 3 Este 13 Sudeste 0 -- -- 58
2019-05-23 11:00:00 17.3 8 Sudeste 14 Sudeste 0 -- -- 62
2019-05-23 10:00:00 14.8 9 Sudeste 14 Sudeste 0 -- -- 68
2019-05-23 09:00:00 13.6 7 Sudeste 10 Sudeste 0 -- -- 74
2019-05-23 08:00:00 10 0 Calma 4 Sudoeste 0 -- -- 86
2019-05-23 07:00:00 8.7 3 Sudoeste 5 Sudoeste 0 -- -- 87
2019-05-23 06:00:00 9.5 3 Oeste 5 Noroeste 0 -- -- 89
2019-05-23 05:00:00 9.1 3 Noroeste 8 Sudoeste 0 -- -- 82
2019-05-23 04:00:00 10.3 4 Sudoeste 11 Sudoeste 0 -- -- 78
2019-05-23 03:00:00 11 2 Sur 8 Oeste 0 -- -- 81
2019-05-23 02:00:00 10.6 2 Oeste 8 Sudoeste 0 -- -- 73
2019-05-23 01:00:00 11 2 Oeste 10 Norte 0 -- -- 67
2019-05-23 00:00:00 12 2 Este 8 Oeste 0 -- -- 66
2019-05-22 23:00:00 13.8 3 Sur 9 Oeste 0 -- -- 56
2019-05-22 22:00:00 16 4 Sudoeste 9 Oeste 0 -- -- 50
2019-05-22 21:00:00 22.4 7 Oeste 14 Oeste 0 -- -- 39
2019-05-22 20:00:00 25.9 4 Oeste 17 Norte 0 -- -- 30
2019-05-22 19:00:00 25.7 7 Noroeste 18 Norte 0 -- -- 29
2019-05-22 18:00:00 26 5 Oeste 22 Noroeste 0 -- -- 29
2019-05-22 17:00:00 25.6 7 Noroeste 25 Noroeste 0 -- -- 32
2019-05-22 16:00:00 26 10 Oeste 66 Oeste 0 -- -- 31
2019-05-22 15:00:00 24.8 6 Oeste 19 Noroeste 0 -- -- 31
2019-05-22 14:00:00 23.9 6 Norte 14 Noroeste 0 -- -- 37
2019-05-22 13:00:00 22.6 2 Este 13 Sudeste 0 -- -- 40
2019-05-22 12:00:00 20.5 3 Este 11 Sudeste 0 -- -- 47
2019-05-22 11:00:00 17.4 3 Este 8 Sudeste 0 -- -- 53
2019-05-22 10:00:00 12.4 2 Este 7 Noroeste 0 -- -- 67
2019-05-22 09:00:00 9.1 3 Norte 8 Norte 0 -- -- 76
2019-05-22 08:00:00 6.7 0 Calma 5 Noroeste 0 -- -- 89
2019-05-22 07:00:00 4.2 3 Noroeste 6 Oeste 0 -- -- 87
2019-05-22 06:00:00 5.4 0 Calma 5 Oeste 0 -- -- 84
2019-05-22 05:00:00 7 4 Noroeste 9 Noroeste 0 -- -- 87
2019-05-22 04:00:00 7.3 3 Oeste 6 Nordeste 0 -- -- 79
2019-05-22 03:00:00 8.5 4 Noroeste 8 Noroeste 0 -- -- 79
2019-05-22 02:00:00 11 4 Nordeste 9 Nordeste 0 -- -- 69
2019-05-22 01:00:00 11.5 5 Noroeste 8 Noroeste 0 -- -- 69
2019-05-22 00:00:00 13.6 2 Noroeste 19 Este 0 -- -- 62
2019-05-21 23:00:00 13.6 4 Nordeste 10 Nordeste 0 -- -- 60
2019-05-21 22:00:00 16.4 6 Este 16 Este 0 -- -- 50
2019-05-21 21:00:00 19 7 Este 17 Este 0 -- -- 42
2019-05-21 20:00:00 20.7 8 Este 20 Nordeste 0 -- -- 35
2019-05-21 19:00:00 22.5 5 Norte 17 Nordeste 0 -- -- 34
2019-05-21 18:00:00 22.3 7 Nordeste 23 Norte 0 -- -- 35
2019-05-21 17:00:00 22.6 7 Este 22 Este 0 -- -- 35
2019-05-21 16:00:00 22.7 5 Nordeste 21 Este 0 -- -- 34
2019-05-21 15:00:00 21.8 8 Este 18 Nordeste 0 -- -- 37
2019-05-21 14:00:00 20.6 6 Sudeste 17 Nordeste 0 -- -- 40
2019-05-21 13:00:00 19.2 7 Este 20 Nordeste 0 -- -- 45
2019-05-21 12:00:00 18 9 Este 20 Sudeste 0 -- -- 53
2019-05-21 11:00:00 16.3 8 Este 16 Este 0 -- -- 54
2019-05-21 10:00:00 13.7 9 Este 18 Sudeste 0 -- -- 66
2019-05-21 09:00:00 11.5 7 Este 14 Nordeste 0 -- -- 72
2019-05-21 08:00:00 9.7 4 Este 10 Nordeste 0 -- -- 80
2019-05-21 07:00:00 7.2 0 Calma 6 Nordeste 0 -- -- 85
2019-05-21 06:00:00 7.9 0 Calma 8 Este 0 -- -- 85
2019-05-21 05:00:00 7.9 3 Nordeste 8 Nordeste 0 -- -- 86
2019-05-21 04:00:00 7.2 3 Noroeste 8 Norte 0 -- -- 89
2019-05-21 03:00:00 6.8 2 Norte 5 Noroeste 0 -- -- 86
2019-05-21 02:00:00 8.3 3 Noroeste 5 Norte 0 -- -- 82
2019-05-21 01:00:00 10.4 4 Norte 8 Noroeste 0 -- -- 71
2019-05-21 00:00:00 10.5 3 Norte 7 Noroeste 0 -- -- 68
2019-05-20 23:00:00 10.4 2 Noroeste 5 Sudoeste 0 -- -- 67
2019-05-20 22:00:00 14.5 2 Este 13 Este 0 -- -- 53
2019-05-20 21:00:00 17 4 Nordeste 16 Nordeste 0 -- -- 45
2019-05-20 20:00:00 18.2 4 Norte 13 Nordeste 0 -- -- 42
2019-05-20 19:00:00 19.1 6 Nordeste 17 Nordeste 0 -- -- 40
2019-05-20 18:00:00 19.8 4 Nordeste 17 Noroeste 0 -- -- 40
2019-05-20 17:00:00 19.2 6 Norte 21 Norte 0 -- -- 39
2019-05-20 16:00:00 20.6 4 Sudoeste 15 Sudeste 0 -- -- 41
2019-05-20 15:00:00 18.2 5 Nordeste 17 Este 0 -- -- 39
2019-05-20 14:00:00 17.8 4 Sudoeste 17 Oeste 0 -- -- 41
2019-05-20 13:00:00 17.2 4 Sudeste 18 Sur 0 -- -- 47
2019-05-20 12:00:00 16 4 Sudeste 19 Este 0 -- -- 50
2019-05-20 11:00:00 13.9 7 Este 17 Sudeste 0 -- -- 56
2019-05-20 10:00:00 10.6 6 Este 17 Este 0 -- -- 68
2019-05-20 09:00:00 7.9 5 Sudeste 12 Sudeste 0 -- -- 78
2019-05-20 08:00:00 5 2 Sur 8 Sudoeste 0 -- -- 90
2019-05-20 07:00:00 2.3 0 Calma 4 Este 0 -- -- 90
2019-05-20 06:00:00 2.9 2 Oeste 8 Nordeste 0 -- -- 85
2019-05-20 05:00:00 3.7 2 Noroeste 8 Este 0 -- -- 85
2019-05-20 04:00:00 4.4 2 Oeste 11 Este 0 -- -- 84
2019-05-20 03:00:00 4.7 2 Oeste 12 Sudoeste 0 -- -- 83
2019-05-20 02:00:00 5.2 4 Sudoeste 9 Sudeste 0 -- -- 80
2019-05-20 01:00:00 7.1 0 Calma 10 Este 0 -- -- 75
2019-05-20 00:00:00 8.3 5 Nordeste 20 Este 0 -- -- 74
2019-05-19 23:00:00 9.2 5 Este 20 Nordeste 0 -- -- 70
2019-05-19 22:00:00 11 7 Nordeste 22 Nordeste 0 -- -- 66
2019-05-19 21:00:00 12.9 12 Este 26 Nordeste 0 -- -- 61
2019-05-19 20:00:00 17 10 Norte 24 Nordeste 0 -- -- 47
2019-05-19 19:00:00 18.3 5 Nordeste 16 Noroeste 0 -- -- 33
2019-05-19 18:00:00 18.2 9 Noroeste 20 Noroeste 0 -- -- 31
2019-05-19 17:00:00 16.9 8 Norte 18 Noroeste 0 -- -- 36
2019-05-19 16:00:00 17.4 5 Norte 23 Oeste 0 -- -- 36
2019-05-19 15:00:00 16.2 6 Noroeste 24 Oeste 0 -- -- 38
2019-05-19 14:00:00 15.7 11 Oeste 21 Noroeste 0 -- -- 39
2019-05-19 13:00:00 13.9 10 Oeste 24 Oeste 0 -- -- 46
2019-05-19 12:00:00 13.9 10 Noroeste 19 Norte 0 -- -- 48
2019-05-19 11:00:00 11.8 7 Noroeste 19 Noroeste 0 -- -- 55
2019-05-19 10:00:00 8.7 10 Noroeste 17 Noroeste 0 -- -- 72
2019-05-19 09:00:00 5.5 4 Norte 8 Norte 0 -- -- 83
2019-05-19 08:00:00 3.3 2 Sur 7 Sudoeste 0 -- -- 95
2019-05-19 07:00:00 1.1 2 Sur 4 Oeste 0 -- -- 91
2019-05-19 06:00:00 2.1 0 Calma 6 Oeste 0 -- -- 88
2019-05-19 05:00:00 3.4 3 Oeste 10 Oeste 0 -- -- 87
2019-05-19 04:00:00 4.5 0 Calma 9 Norte 0 -- -- 82
2019-05-19 03:00:00 6 5 Noroeste 14 Oeste 0 -- -- 79
2019-05-19 02:00:00 6.7 8 Oeste 17 Oeste 0 -- -- 76
2019-05-19 01:00:00 8.6 8 Noroeste 15 Oeste 0 -- -- 68
2019-05-19 00:00:00 9.3 5 Noroeste 16 Noroeste 0 -- -- 66
2019-05-18 23:00:00 10.8 8 Noroeste 16 Noroeste 0 -- -- 58
2019-05-18 22:00:00 11.4 10 Noroeste 19 Noroeste 0 -- -- 54
2019-05-18 21:00:00 12.4 10 Noroeste 26 Noroeste 0 -- -- 54
2019-05-18 20:00:00 13.2 14 Noroeste 36 Noroeste 0 -- -- 52
2019-05-18 19:00:00 14.1 19 Noroeste 35 Noroeste 0 -- -- 49
2019-05-18 18:00:00 14.6 21 Noroeste 41 Noroeste 0 -- -- 44
2019-05-18 17:00:00 14.9 21 Noroeste 47 Noroeste 0 -- -- 42
2019-05-18 16:00:00 15.5 23 Noroeste 42 Noroeste 0 -- -- 38
2019-05-18 15:00:00 14.1 23 Noroeste 40 Noroeste 0 -- -- 43
2019-05-18 14:00:00 14.3 19 Noroeste 33 Noroeste 0 -- -- 49
2019-05-18 13:00:00 13.8 19 Noroeste 36 Oeste 0 -- -- 52
2019-05-18 12:00:00 12.7 17 Noroeste 35 Oeste 0 -- -- 57
2019-05-18 11:00:00 10.5 13 Oeste 27 Oeste 0 -- -- 65
2019-05-18 10:00:00 7.9 17 Noroeste 33 Oeste 0 -- -- 73
2019-05-18 09:00:00 5.8 18 Oeste 31 Noroeste 0 -- -- 79
2019-05-18 08:00:00 4.7 17 Oeste 32 Oeste 0 -- -- 82
2019-05-18 07:00:00 3.8 15 Oeste 32 Oeste 0 -- -- 85
2019-05-18 06:00:00 3.4 16 Noroeste 25 Oeste 0 -- -- 87
2019-05-18 05:00:00 3.1 2 Sudeste 11 Oeste 0 -- -- 86
2019-05-18 04:00:00 4.3 10 Oeste 24 Oeste 0 -- -- 84
2019-05-18 03:00:00 5.6 11 Oeste 21 Oeste 0 -- -- 81
2019-05-18 02:00:00 6.2 8 Noroeste 15 Oeste 0 -- -- 78
2019-05-18 01:00:00 8 7 Noroeste 19 Oeste 0 -- -- 74
2019-05-18 00:00:00 9.3 2 Norte 10 Nordeste 0 -- -- 82
2019-05-17 23:00:00 9.3 2 Oeste 9 Nordeste 0 -- -- 79
2019-05-17 22:00:00 10.3 2 Norte 26 Nordeste 0 -- -- 76
2019-05-17 21:00:00 12.1 9 Este 25 Sudeste 0 -- -- 70
2019-05-17 20:00:00 11.8 5 Noroeste 25 Noroeste 0 -- -- 71
2019-05-17 19:00:00 13.9 7 Nordeste 33 Norte 0 -- -- 57
2019-05-17 18:00:00 14.7 17 Noroeste 30 Norte 0 -- -- 50
2019-05-17 17:00:00 14.2 17 Noroeste 34 Noroeste 0 -- -- 52
2019-05-17 16:00:00 15.1 17 Noroeste 42 Noroeste 0 -- -- 50
2019-05-17 15:00:00 15.2 23 Noroeste 36 Noroeste 0 -- -- 49
2019-05-17 14:00:00 12.7 20 Noroeste 35 Noroeste 0 -- -- 55
2019-05-17 13:00:00 12.7 20 Noroeste 44 Oeste 0 -- -- 55
2019-05-17 12:00:00 12.9 23 Noroeste 43 Noroeste 0 -- -- 58
2019-05-17 11:00:00 11.6 23 Noroeste 45 Noroeste 0 -- -- 67
2019-05-17 10:00:00 8.9 20 Noroeste 46 Oeste 0 -- -- 80
2019-05-17 09:00:00 8.8 24 Oeste 48 Oeste 0 -- -- 83
2019-05-17 08:00:00 7.7 23 Oeste 51 Oeste 0 -- -- 86
2019-05-17 07:00:00 7.4 22 Oeste 40 Oeste 0 -- -- 87
2019-05-17 06:00:00 7.8 23 Oeste 36 Oeste 0 -- -- 87
2019-05-17 05:00:00 7.9 17 Oeste 32 Noroeste 0 -- -- 89
2019-05-17 04:00:00 7.4 21 Oeste 35 Oeste 0 -- -- 88
2019-05-17 03:00:00 7.4 17 Oeste 32 Oeste 0 -- -- 89
2019-05-17 02:00:00 8.4 17 Noroeste 27 Oeste 0.2 -- -- 89
2019-05-17 01:00:00 8.3 7 Oeste 19 Oeste 0 -- -- 93
2019-05-17 00:00:00 8.3 10 Noroeste 22 Noroeste 0.2 -- -- 93